LFKC Airport Information

Runway Information
Runway 18 Length 7579 ft width 131 ft
Elevation 63 ft Threshold 0 ft Heading 179
Runway 36 Length 7579 ft Width 131 ft
Elevation 198 ft Threshold 656 ft Heading 359
Airport Frequencies
Type ATIS Name CALVI ATIS Frequency 131.175 MHZ
Type GND Name CALVI GND Frequency 121.7 MHZ
Type TWR Name CALVI TWR Frequency 120.8 MHZ
Airport Navaids
Type NDB Name Calvi Frequency 375 KHZ
Airport Weather Information & NOTAM
ADDS - METARS form results

(1235 UTC 18 October 2018)
Data provider http://aviationweather.gov/metar/data/
 
METAR text: LFKC 181230Z AUTO VRB03KT CAVOK 25/16 Q1010 NOSIG
Conditions at: LFKC (CALVI/ST. CATHER, FR) observed 1230 UTC 18 October 2018
Temperature: 25.0°C (77°F)
Dewpoint: 16.0°C (61°F) [RH = 57%]
Pressure (altimeter): 29.82 inches Hg (1010.0 mb)
Winds: variable direction winds at 3 MPH (3 knots; 1.5 m/s)
Visibility: 6 or more miles (10+ km)
Ceiling: ceiling and visibility are OK
Clouds: unknown
Weather: no significant weather observed at this time

METAR text: LFKC 181200Z AUTO 36004KT 310V030 CAVOK 25/17 Q1011 NOSIG
Conditions at: LFKC (CALVI/ST. CATHER, FR) observed 1200 UTC 18 October 2018
Temperature: 25.0°C (77°F)
Dewpoint: 17.0°C (63°F) [RH = 61%]
Pressure (altimeter): 29.85 inches Hg (1011.0 mb)
Winds: from the N (360 degrees) at 5 MPH (4 knots; 2.1 m/s)
Visibility: 6 or more miles (10+ km)
Ceiling: ceiling and visibility are OK
Clouds: unknown
Weather: no significant weather observed at this time

Forecast for: LFKC (CALVI/ST. CATHER, FR)
Text: TAF LFKC 180800Z 1809/1909 21005KT 9999 FEW040 SCT140 TX25/1813Z TN14/1904Z
Forecast period: 0900 UTC 18 October 2018 to 0900 UTC 19 October 2018
Forecast type: FROM: standard forecast or significant change
Winds: from the SSW (210 degrees) at 6 MPH (5 knots; 2.6 m/s)
Visibility: 6 or more miles 10+ km)
Ceiling: at least 12,000 feet AGL
Clouds: few clouds at 4000 feet AGL
scattered clouds at 14000 feet AGL
Weather: no significant weather forecast for this period
Text: BECMG 1809/1810 34010KT
Forecast period: 0900 to 1600 UTC 18 October 2018
Forecast type: BECOMING: Conditions expected to become as follows by 1000 UTC 18 October 2018
Winds: from the NNW (340 degrees) at 12 MPH (10 knots; 5.1 m/s)
Visibility: 6 or more miles 10+ km)
Ceiling: at least 12,000 feet AGL
Clouds: few clouds at 4000 feet AGL
scattered clouds at 14000 feet AGL
Weather: no significant weather forecast for this period
Text: BECMG 1816/1818 18004KT CAVOK
Forecast period: 1600 UTC 18 October 2018 to 0900 UTC 19 October 2018
Forecast type: BECOMING: Conditions expected to become as follows by 1800 UTC 18 October 2018
Winds: from the S (180 degrees) at 5 MPH (4 knots; 2.1 m/s)
Visibility: 6 or more miles 10+ km)
Ceiling: unknown
Clouds: missing
Weather: NSW  (no significant weather)